Terminal Aerodrome Forecast
Issued by NWS

Home | Current Version | Previous Version | Text Only | Print | Product List | Glossary On
Versions: 1 2 3 4 5 6 7 8 9 10 11 12 13 14 15
838
FTUS46 KPDT 251739
TAFDLS
TAF
KDLS 251739Z 2518/2618 32014G22KT P6SM SKC
     FM252300 32014G22KT P6SM FEW180=

USA.gov is the U.S. government's official web portal to all federal, state and local government web resources and services.